This is the latest recevied weather packets stored in our database for station/object KB5SJ. If no packets are shown the sender has not sent any weather packets the latest 10 day(s).
| Time | Temp. | Humidity | Pressure | Rain* | Wind** | Luminosity | Snow |
|---|---|---|---|---|---|---|---|
| 1777430716 | 25.56° C | 91% | 1011.4 hPa | 0 mm | - | - | - |
| 1777430116 | 25.56° C | 91% | 1011.1 hPa | 0 mm | - | - | - |
| 1777428316 | 26.11° C | 90% | 1010.7 hPa | 0 mm | - | - | - |
| 1777425916 | 26.67° C | 89% | 1010.9 hPa | 0 mm | - | - | - |
| 1777421115 | 28.89° C | 83% | 1010.4 hPa | 0 mm | - | - | - |
| 1777419336 | 29.44° C | 78% | 1010.4 hPa | 0 mm | - | - | - |
| 1777418118 | 30° C | 76% | 1010.3 hPa | 0 mm | - | - | - |
| 1777416318 | 30.56° C | 74% | 1009.6 hPa | 0 mm | - | - | - |
| 1777409717 | 31.11° C | 78% | 1010.8 hPa | 0 mm | - | - | - |
| 1777408517 | 31.67° C | 76% | 1011.3 hPa | 0 mm | - | - | - |
| 1777406757 | 31.67° C | 73% | 1011.8 hPa | 0 mm | - | - | - |
| 1777405517 | 31.67° C | 74% | 1012 hPa | 0 mm | - | - | - |
| 1777404917 | 31.67° C | 72% | 1012.2 hPa | 0 mm | - | - | - |
| 1777403717 | 31.67° C | 76% | 1012.1 hPa | 0 mm | - | - | - |
| 1777401318 | 31.67° C | 76% | 1012.2 hPa | 0 mm | - | - | - |
| 1777398917 | 31.11° C | 78% | 1012.9 hPa | 0 mm | - | - | - |
| 1777396517 | 30° C | 81% | 1013.3 hPa | 0 mm | - | - | - |
| 1777395937 | 30.56° C | 79% | 1013.2 hPa | 0 mm | - | - | - |
| 1777395337 | 30° C | 81% | 1013.2 hPa | 0 mm | - | - | - |
| 1777394117 | 30° C | 83% | 1013.5 hPa | 0 mm | - | - | - |
| 1777392317 | 28.89° C | 86% | 1013.3 hPa | 0 mm | - | - | - |
| 1777390517 | 27.78° C | 87% | 1013.4 hPa | 0 mm | - | - | - |
| 1777389937 | 27.78° C | 87% | 1013.1 hPa | 0 mm | - | - | - |
| 1777386917 | 26.67° C | 91% | 1013.1 hPa | 0 mm | - | - | - |
| 1777386317 | 26.67° C | 92% | 1013 hPa | 0 mm | - | - | - |
* Rain latest hour (hover to see other rain measurements)
** Current wind speed in m/s (hover to see current wind gust speed)